Time;durP1;ratioP1;P1;durP2;ratioP2;P2;SDS_P1;SDS_P2;PMS_P1;PMS_P2;Temp;Humidity;BMP_temperature;BMP_pressure;BME280_temperature;BME280_humidity;BME280_pressure;Samples;Min_cycle;Max_cycle;Signal;HPM_P1;HPM_P2
2022/10/04 00:01:29;;;;;;;13.18;11.35;;;;;;;10.07;100.00;102369.78;5076282;28;20472;-76
2022/10/04 00:04:10;;;;;;;15.20;10.43;;;;;;;10.04;100.00;102369.91;5076274;28;20379;-75
2022/10/04 00:06:43;;;;;;;15.80;10.45;;;;;;;9.95;100.00;102369.41;5075934;28;20025;-75
2022/10/04 00:09:18;;;;;;;15.95;12.02;;;;;;;9.93;100.00;102358.25;5076182;28;20046;-74
2022/10/04 00:11:46;;;;;;;15.15;10.77;;;;;;;10.11;100.00;102374.84;5075878;28;20110;-74
2022/10/04 00:14:49;;;;;;;15.35;10.70;;;;;;;10.11;100.00;102365.34;5076059;28;20126;-75
2022/10/04 00:17:22;;;;;;;16.50;11.20;;;;;;;10.12;100.00;102361.03;4974810;28;20039;-75
2022/10/04 00:19:50;;;;;;;16.73;11.07;;;;;;;10.12;100.00;102361.88;4975080;28;20047;-75
2022/10/04 00:22:27;;;;;;;15.90;11.80;;;;;;;10.12;100.00;102358.44;4975051;28;20082;-73
2022/10/04 00:25:08;;;;;;;14.05;10.70;;;;;;;10.12;100.00;102355.88;4975028;28;20126;-75
2022/10/04 00:27:35;;;;;;;;;;;;;;;10.15;100.00;102361.78;4975045;28;20126;-74
2022/10/04 00:30:00;;;;;;;16.65;11.35;;;;;;;10.12;100.00;102356.69;4974540;28;19957;-75
2022/10/04 00:32:27;;;;;;;16.02;11.07;;;;;;;10.11;100.00;102351.59;4974427;28;20553;-76
2022/10/04 00:34:53;;;;;;;14.85;11.35;;;;;;;10.10;100.00;102348.19;4974707;28;20031;-76
2022/10/04 00:37:20;;;;;;;20.02;11.48;;;;;;;10.09;100.00;102345.66;4975134;28;20114;-75
2022/10/04 00:40:04;;;;;;;13.68;10.63;;;;;;;9.81;100.00;102299.38;4974719;28;20117;-76
2022/10/04 00:42:54;;;;;;;13.38;10.80;;;;;;;10.09;100.00;102343.91;4974628;28;20394;-75
2022/10/04 00:46:01;;;;;;;15.80;11.03;;;;;;;10.10;100.00;102342.19;4974374;28;20039;-74
2022/10/04 00:48:27;;;;;;;14.43;10.20;;;;;;;10.05;100.00;102343.19;4917185;29;20503;-75
2022/10/04 00:51:06;;;;;;;15.57;11.38;;;;;;;10.07;100.00;102340.56;4917026;29;20040;-74
2022/10/04 00:53:46;;;;;;;15.25;10.48;;;;;;;10.06;100.00;102346.63;4962843;28;20038;-75
2022/10/04 00:56:32;;;;;;;15.35;11.23;;;;;;;10.08;100.00;102347.41;4974227;28;20037;-75
2022/10/04 00:59:04;;;;;;;14.55;10.55;;;;;;;9.94;100.00;102316.09;4974411;28;20406;-79
2022/10/04 01:01:34;;;;;;;12.90;10.57;;;;;;;10.00;100.00;102331.34;4974250;28;20498;-75
2022/10/04 01:04:03;;;;;;;14.52;10.90;;;;;;;9.86;100.00;102307.81;4974256;28;20066;-79
2022/10/04 01:06:29;;;;;;;12.02;10.18;;;;;;;9.85;100.00;102319.03;4974033;28;20034;-75
2022/10/04 01:09:02;;;;;;;16.98;11.15;;;;;;;9.77;100.00;102314.13;4974236;28;20035;-75
2022/10/04 01:11:32;;;;;;;15.20;11.20;;;;;;;9.63;100.00;102290.53;4974051;28;20382;-75
2022/10/04 01:14:20;;;;;;;16.65;12.23;;;;;;;9.66;100.00;102304.19;4974123;28;20038;-76
2022/10/04 01:16:45;;;;;;;16.77;10.63;;;;;;;9.59;100.00;102307.88;4973849;28;20113;-75
2022/10/04 01:19:31;;;;;;;14.60;11.27;;;;;;;9.56;100.00;102308.00;4973968;28;20546;-74
2022/10/04 01:22:03;;;;;;;18.50;11.82;;;;;;;9.48;100.00;102310.84;4973765;28;20034;-74
2022/10/04 01:24:34;;;;;;;14.68;11.52;;;;;;;9.47;100.00;102310.91;4984322;28;20111;-75
2022/10/04 01:27:00;;;;;;;17.35;11.65;;;;;;;9.29;100.00;102293.47;5074187;28;20025;-74
2022/10/04 01:29:28;;;;;;;16.58;11.82;;;;;;;9.28;100.00;102297.78;5074602;28;20439;-74
2022/10/04 01:31:58;;;;;;;16.20;11.20;;;;;;;9.36;100.00;102307.84;5074629;28;20099;-76
2022/10/04 01:34:26;;;;;;;16.58;11.60;;;;;;;9.34;100.00;102305.31;5074579;28;20056;-79
2022/10/04 01:36:56;;;;;;;15.55;11.63;;;;;;;9.37;100.00;102301.78;5074491;28;20035;-76
2022/10/04 01:39:23;;;;;;;19.10;12.00;;;;;;;9.33;100.00;102288.16;5074419;28;20055;-74
2022/10/04 01:41:55;;;;;;;13.55;11.13;;;;;;;9.41;100.00;102290.47;5074058;28;20008;-78
2022/10/04 01:44:46;;;;;;;16.13;11.38;;;;;;;9.48;100.00;102294.53;5074012;28;20033;-77
2022/10/04 01:47:18;;;;;;;17.85;12.38;;;;;;;9.45;100.00;102281.75;5074279;28;20032;-75
2022/10/04 01:49:46;;;;;;;14.35;11.20;;;;;;;9.49;100.00;102289.31;5074195;28;20021;-76
2022/10/04 01:52:21;;;;;;;16.73;12.48;;;;;;;9.25;100.00;102240.34;5074054;28;20053;-78
2022/10/04 01:54:52;;;;;;;17.92;12.45;;;;;;;9.46;100.00;102276.53;5073844;28;20017;-74
2022/10/04 01:57:22;;;;;;;17.65;12.75;;;;;;;9.52;100.00;102278.03;5074074;28;20017;-75
2022/10/04 02:00:08;;;;;;;18.60;11.43;;;;;;;9.52;100.00;102285.78;5073963;28;20352;-75
2022/10/04 02:02:43;;;;;;;15.93;12.70;;;;;;;9.48;100.00;102285.03;5073841;28;20031;-74
2022/10/04 02:05:18;;;;;;;18.67;11.68;;;;;;;9.42;100.00;102282.66;5073815;28;20028;-74
2022/10/04 02:07:44;;;;;;;17.98;11.50;;;;;;;9.24;100.00;102248.94;5073788;28;20025;-75
2022/10/04 02:10:17;;;;;;;15.73;11.45;;;;;;;9.26;100.00;102258.34;5073673;28;20098;-80
2022/10/04 02:12:46;;;;;;;15.38;11.48;;;;;;;9.16;100.00;102247.50;5073698;28;20487;-80
2022/10/04 02:15:12;;;;;;;16.27;11.88;;;;;;;9.20;100.00;102246.50;5073936;28;20107;-78
2022/10/04 02:17:41;;;;;;;17.15;10.82;;;;;;;9.20;100.00;102248.22;5073340;28;20044;-78
2022/10/04 02:20:17;;;;;;;14.68;12.07;;;;;;;9.23;100.00;102232.66;5073432;28;20028;-75
2022/10/04 02:22:45;;;;;;;14.82;11.48;;;;;;;9.22;100.00;102218.06;5073498;28;20047;-79
2022/10/04 02:25:13;;;;;;;21.23;12.40;;;;;;;9.21;100.00;102218.97;5073571;28;20047;-76
2022/10/04 02:27:38;;;;;;;18.38;13.38;;;;;;;9.14;100.00;102215.78;5073320;28;20028;-81
2022/10/04 02:30:08;;;;;;;18.02;12.13;;;;;;;9.19;100.00;102225.94;5073576;28;20051;-80
2022/10/04 02:35:19;;;;;;;17.90;12.35;;;;;;;8.97;100.00;102215.53;5073798;28;20051;-81
2022/10/04 02:37:50;;;;;;;17.25;13.10;;;;;;;8.59;100.00;102157.56;5073566;28;20021;-81
2022/10/04 02:40:20;;;;;;;20.50;12.88;;;;;;;8.93;100.00;102216.50;5073438;28;20032;-79
2022/10/04 02:42:56;;;;;;;21.33;12.63;;;;;;;8.72;100.00;102187.16;5073301;28;20031;-78
2022/10/04 02:45:41;;;;;;;20.45;14.88;;;;;;;8.78;100.00;102215.31;5073465;28;20376;-80
2022/10/04 02:48:43;;;;;;;21.85;13.38;;;;;;;8.73;100.00;102201.72;5073378;28;20057;-78
2022/10/04 02:51:53;;;;;;;18.58;13.65;;;;;;;8.67;100.00;102191.63;5073216;28;20493;-80
2022/10/04 02:54:30;;;;;;;20.27;13.75;;;;;;;8.58;100.00;102184.22;4972002;28;20062;-79
2022/10/04 02:56:57;;;;;;;19.63;14.20;;;;;;;8.55;100.00;102184.28;4972378;28;20113;-81
2022/10/04 02:59:23;;;;;;;22.38;14.40;;;;;;;8.37;100.00;102154.03;4972080;28;20038;-79
2022/10/04 03:01:56;;;;;;;22.45;14.10;;;;;;;8.50;100.00;102173.31;4972368;28;20049;-79
2022/10/04 03:04:25;;;;;;;19.40;13.57;;;;;;;8.32;100.00;102154.97;4972214;28;20034;-78
2022/10/04 03:06:51;;;;;;;18.95;14.25;;;;;;;8.42;100.00;102173.56;4972280;28;20441;-80
2022/10/04 03:09:20;;;;;;;19.08;13.70;;;;;;;8.35;100.00;102166.94;4972261;28;20034;-80
2022/10/04 03:11:48;;;;;;;20.77;13.65;;;;;;;8.32;100.00;102170.41;4972147;28;20576;-80
2022/10/04 03:14:20;;;;;;;19.65;13.45;;;;;;;8.17;100.00;102152.91;4972138;28;20110;-78
2022/10/04 03:16:48;;;;;;;21.33;13.65;;;;;;;8.20;100.00;102159.69;4972069;28;20081;-80
2022/10/04 03:19:15;;;;;;;19.83;13.65;;;;;;;8.23;100.00;102170.72;4972137;28;20038;-80
2022/10/04 03:21:43;;;;;;;18.35;13.60;;;;;;;8.17;100.00;102164.94;4972284;28;20112;-78
2022/10/04 03:24:15;;;;;;;19.73;13.70;;;;;;;8.15;100.00;102164.94;4990048;28;20125;-80
2022/10/04 03:26:46;;;;;;;19.20;14.27;;;;;;;8.14;100.00;102152.13;5072673;28;20456;-80
2022/10/04 03:29:15;;;;;;;20.02;14.88;;;;;;;8.12;100.00;102153.94;5072648;28;20028;-81
2022/10/04 03:31:46;;;;;;;21.40;15.23;;;;;;;8.08;100.00;102136.91;5073022;28;20032;-81
2022/10/04 03:34:14;;;;;;;22.98;15.73;;;;;;;8.13;100.00;102151.31;5072898;28;20024;-77
2022/10/04 03:36:40;;;;;;;23.63;15.73;;;;;;;8.12;100.00;102149.63;5072958;28;20371;-79
2022/10/04 03:39:09;;;;;;;23.52;15.48;;;;;;;8.08;100.00;102149.78;5072614;28;20020;-80
2022/10/04 03:41:38;;;;;;;21.02;15.25;;;;;;;8.07;100.00;102154.09;5072803;28;20384;-79
2022/10/04 03:44:06;;;;;;;22.10;15.20;;;;;;;7.91;100.00;102122.00;5072696;28;20028;-81
2022/10/04 03:46:31;;;;;;;23.38;15.57;;;;;;;7.98;100.00;102147.50;5072671;28;20106;-80
2022/10/04 03:48:58;;;;;;;21.98;15.52;;;;;;;7.86;100.00;102132.41;5072686;28;20072;-80
2022/10/04 03:51:25;;;;;;;20.70;15.50;;;;;;;7.89;100.00;102141.78;5072722;28;20020;-80
2022/10/04 03:53:54;;;;;;;20.95;15.35;;;;;;;7.84;100.00;102131.63;5054563;28;20025;-80
2022/10/04 03:56:29;;;;;;;20.63;14.65;;;;;;;7.82;100.00;102133.41;5072692;28;20017;-79
2022/10/04 03:58:56;;;;;;;21.08;14.80;;;;;;;7.78;100.00;102125.84;5072412;28;20029;-78
2022/10/04 04:01:33;;;;;;;21.65;15.27;;;;;;;7.77;100.00;102127.59;5072649;28;20066;-77
2022/10/04 04:04:17;;;;;;;22.85;15.10;;;;;;;7.76;100.00;102139.56;5072509;28;20028;-77
2022/10/04 04:07:09;;;;;;;22.25;15.90;;;;;;;7.73;100.00;102131.97;5074596;28;20032;-81
2022/10/04 04:10:00;;;;;;;20.67;15.23;;;;;;;7.71;100.00;102133.75;4975199;28;20051;-79
2022/10/04 04:12:36;;;;;;;25.20;16.25;;;;;;;7.61;100.00;102113.50;4975315;28;20122;-76
2022/10/04 04:15:03;;;;;;;23.02;15.68;;;;;;;7.65;100.00;102131.34;4974918;28;20039;-77
2022/10/04 04:17:35;;;;;;;18.83;14.40;;;;;;;7.62;100.00;102130.59;4974867;28;20431;-74
2022/10/04 04:20:05;;;;;;;18.55;14.45;;;;;;;7.62;100.00;102133.16;4975034;28;20129;-75
2022/10/04 04:22:30;;;;;;;20.67;14.82;;;;;;;7.58;100.00;102126.44;4975189;28;20035;-74
2022/10/04 04:25:00;;;;;;;22.15;15.10;;;;;;;7.56;100.00;102131.63;4975037;28;20363;-74
2022/10/04 04:27:28;;;;;;;22.05;15.93;;;;;;;7.57;100.00;102130.75;4974844;28;20039;-79
2022/10/04 04:29:54;;;;;;;23.40;17.10;;;;;;;7.58;100.00;102129.88;4974559;28;20066;-79
2022/10/04 04:32:29;;;;;;;21.58;15.95;;;;;;;7.61;100.00;102128.91;4974666;28;20048;-75
2022/10/04 04:35:05;;;;;;;24.35;17.33;;;;;;;7.64;100.00;102128.81;4974942;28;20135;-76
2022/10/04 04:37:33;;;;;;;24.05;17.02;;;;;;;7.67;100.00;102126.16;4974839;28;20371;-74
2022/10/04 04:40:17;;;;;;;27.30;16.90;;;;;;;7.78;100.00;102121.56;4974811;28;20042;-76
2022/10/04 04:42:44;;;;;;;26.60;17.20;;;;;;;7.63;100.00;102093.72;4974581;28;20035;-79
2022/10/04 04:45:18;;;;;;;24.45;17.58;;;;;;;7.88;100.00;102122.09;4974430;28;20105;-76
2022/10/04 04:47:51;;;;;;;24.48;17.90;;;;;;;7.93;100.00;102115.91;5069673;28;20389;-75
2022/10/04 04:50:18;;;;;;;27.55;17.55;;;;;;;7.98;100.00;102108.06;5075449;28;20024;-80
2022/10/04 04:52:47;;;;;;;29.48;17.63;;;;;;;8.05;100.00;102114.69;5075207;28;20029;-77
2022/10/04 04:55:25;;;;;;;27.15;18.00;;;;;;;8.09;100.00;102105.16;5075372;28;20036;-77
2022/10/04 04:57:54;;;;;;;28.73;18.30;;;;;;;8.14;100.00;102110.97;5074819;28;20189;-76
2022/10/04 05:00:30;;;;;;;23.23;16.75;;;;;;;8.16;100.00;102116.91;5075187;28;20481;-79
2022/10/04 05:02:58;;;;;;;26.23;16.73;;;;;;;7.99;100.00;102092.59;5075096;28;20020;-80
2022/10/04 05:05:26;;;;;;;25.30;16.80;;;;;;;8.14;100.00;102116.13;5075010;28;20064;-79
2022/10/04 05:08:15;;;;;;;24.23;15.95;;;;;;;8.08;100.00;102109.47;5074809;28;20028;-78
2022/10/04 05:11:14;;;;;;;25.00;15.23;;;;;;;7.98;100.00;102102.94;5074709;28;20028;-77
2022/10/04 05:13:58;;;;;;;20.95;15.00;;;;;;;7.95;100.00;102103.00;4974155;28;20494;-75
2022/10/04 05:16:46;;;;;;;25.92;15.85;;;;;;;7.92;100.00;102109.09;4973399;28;20042;-78
2022/10/04 05:19:29;;;;;;;23.25;16.00;;;;;;;7.67;100.00;102073.03;4973869;28;20053;-75
2022/10/04 05:21:57;;;;;;;26.65;16.45;;;;;;;7.68;100.00;102069.56;4967653;28;20031;-76
2022/10/04 05:24:27;;;;;;;22.60;15.95;;;;;;;7.69;100.00;102081.53;4973903;28;20042;-80
2022/10/04 05:26:56;;;;;;;25.35;15.88;;;;;;;7.70;100.00;102083.22;4973245;28;20118;-80
2022/10/04 05:29:26;;;;;;;23.05;16.67;;;;;;;7.69;100.00;102099.53;4973757;28;20034;-79
2022/10/04 05:32:03;;;;;;;25.75;16.25;;;;;;;7.72;100.00;102114.84;4973528;28;20026;-76
2022/10/04 05:34:35;;;;;;;23.30;15.45;;;;;;;7.50;100.00;102092.41;4973746;28;20039;-76
2022/10/04 05:37:22;;;;;;;22.95;16.30;;;;;;;7.67;100.00;102121.00;4973725;28;20058;-80
2022/10/04 05:40:13;;;;;;;23.25;15.75;;;;;;;7.55;100.00;102114.50;4973374;28;20069;-78
2022/10/04 05:42:44;;;;;;;25.55;15.35;;;;;;;7.36;100.00;102085.09;4916059;29;20100;-76
2022/10/04 05:45:23;;;;;;;25.45;16.60;;;;;;;7.61;100.00;102124.63;4916076;29;20067;-81
2022/10/04 05:47:51;;;;;;;23.20;16.23;;;;;;;7.54;100.00;102112.81;4915830;29;20048;-77
2022/10/04 05:50:28;;;;;;;21.48;15.75;;;;;;;7.52;100.00;102109.47;4951768;28;20449;-77
2022/10/04 05:53:06;;;;;;;25.95;16.67;;;;;;;7.61;100.00;102122.06;4973071;28;20086;-77
2022/10/04 05:55:58;;;;;;;24.92;16.55;;;;;;;7.50;100.00;102113.81;4973341;28;20031;-77
2022/10/04 05:58:31;;;;;;;22.67;16.20;;;;;;;7.52;100.00;102106.91;4973176;28;20038;-79
2022/10/04 06:01:33;;;;;;;27.50;16.23;;;;;;;7.63;100.00;102127.13;4972985;28;20039;-79
2022/10/04 06:04:06;;;;;;;;;;;;;;;7.71;100.00;102143.19;4973663;28;20038;-78
2022/10/04 06:06:57;;;;;;;25.90;16.42;;;;;;;7.70;100.00;102144.06;4973106;28;19918;-75
2022/10/04 06:10:10;;;;;;;24.35;17.83;;;;;;;7.75;100.00;102144.75;4972716;28;20035;-75
2022/10/04 06:12:44;;;;;;;26.00;15.88;;;;;;;7.75;100.00;102137.03;4964485;28;20083;-79
2022/10/04 06:15:22;;;;;;;26.30;16.65;;;;;;;7.62;100.00;102112.59;4972998;28;20117;-79
2022/10/04 06:17:50;;;;;;;26.27;16.90;;;;;;;7.82;100.00;102133.41;4972605;28;20026;-75
2022/10/04 06:21:03;;;;;;;25.15;15.48;;;;;;;7.88;100.00;102134.97;5050343;28;20132;-77
2022/10/04 06:23:32;;;;;;;28.38;16.58;;;;;;;7.96;100.00;102143.25;4972886;28;20049;-75
2022/10/04 06:26:11;;;;;;;27.05;16.20;;;;;;;7.90;100.00;102113.44;4972699;28;20397;-78
2022/10/04 06:28:41;;;;;;;24.13;15.35;;;;;;;8.12;100.00;102136.75;4972235;28;20056;-78
2022/10/04 06:31:23;;;;;;;25.17;15.52;;;;;;;8.22;100.00;102129.59;4972620;28;20038;-78
2022/10/04 06:34:16;;;;;;;21.75;15.43;;;;;;;8.32;100.00;102131.81;4972253;28;20479;-79
2022/10/04 06:37:09;;;;;;;24.83;14.70;;;;;;;8.44;100.00;102127.19;4972512;28;20049;-77
2022/10/04 06:40:01;;;;;;;24.10;14.73;;;;;;;8.52;100.00;102118.31;4972576;28;20038;-76
2022/10/04 06:42:38;;;;;;;23.83;14.98;;;;;;;8.58;100.00;102123.25;4972621;28;20066;-79
2022/10/04 06:45:22;;;;;;;27.58;14.43;;;;;;;8.63;100.00;102128.25;4972769;28;20038;-74
2022/10/04 06:48:09;;;;;;;22.30;13.60;;;;;;;8.54;100.00;102092.50;5184530;22;20125;-74
2022/10/04 06:50:53;;;;;;;23.05;12.77;;;;;;;8.70;100.00;102126.31;5071796;28;20499;-73
2022/10/04 06:53:45;;;;;;;20.90;12.57;;;;;;;8.76;100.00;102120.97;5072809;28;20044;-77
2022/10/04 06:56:32;;;;;;;19.73;12.10;;;;;;;8.86;100.00;102112.00;5068420;28;20119;-76
2022/10/04 06:59:10;;;;;;;20.55;11.75;;;;;;;8.93;100.00;102121.19;5073124;28;20036;-77
2022/10/04 07:01:45;;;;;;;16.30;9.85;;;;;;;8.96;100.00;102113.38;5072963;28;20031;-80
2022/10/04 07:04:47;;;;;;;19.10;11.07;;;;;;;9.03;100.00;102117.38;5073077;28;20024;-79
2022/10/04 07:07:34;;;;;;;20.05;10.95;;;;;;;9.03;100.00;102113.97;4991555;28;20100;-79
2022/10/04 07:10:02;;;;;;;14.13;9.45;;;;;;;9.03;100.00;102113.97;4991691;28;20037;-80
2022/10/04 07:12:30;;;;;;;17.92;9.90;;;;;;;8.98;100.00;102101.28;4975439;28;20089;-76
2022/10/04 07:15:01;;;;;;;13.77;9.07;;;;;;;9.05;100.00;102107.06;4991720;28;20047;-81
2022/10/04 07:17:39;;;;;;;16.00;9.32;;;;;;;9.10;100.00;102102.56;4991311;28;20030;-80
2022/10/04 07:20:12;;;;;;;14.05;9.35;;;;;;;9.12;100.00;102101.59;4991607;28;20031;-81
2022/10/04 07:22:49;;;;;;;13.82;8.70;;;;;;;9.02;100.00;102082.22;4991518;28;20068;-81
2022/10/04 07:25:22;;;;;;;16.80;9.38;;;;;;;9.19;100.00;102102.22;4991539;28;20039;-80
2022/10/04 07:31:05;;;;;;;16.08;9.60;;;;;;;9.26;100.00;102108.84;4971961;28;20059;-81
2022/10/04 07:33:34;;;;;;;14.73;9.15;;;;;;;9.31;100.00;102109.50;4971709;28;20019;-80
2022/10/04 07:36:08;;;;;;;16.23;9.60;;;;;;;9.32;100.00;102105.19;4971918;28;20122;-80
2022/10/04 07:38:43;;;;;;;17.92;9.45;;;;;;;9.38;100.00;102100.63;4971950;28;20078;-77
2022/10/04 07:41:17;;;;;;;15.55;9.13;;;;;;;9.30;100.00;102087.19;4974950;28;20027;-78
2022/10/04 07:43:51;;;;;;;16.77;9.52;;;;;;;9.58;100.00;102122.25;4987906;28;20078;-77
2022/10/04 07:46:37;;;;;;;17.42;9.75;;;;;;;9.54;100.00;102100.91;5014322;28;20128;-80
2022/10/04 07:49:03;;;;;;;19.20;9.93;;;;;;;9.77;100.00;102111.16;5014566;28;20050;-80
2022/10/04 07:51:38;;;;;;;16.58;9.88;;;;;;;9.89;100.00;102119.31;5014731;28;20084;-80
2022/10/04 07:54:15;;;;;;;17.77;10.27;;;;;;;9.85;100.00;102085.06;5014589;28;20022;-79
2022/10/04 07:56:50;;;;;;;15.85;10.15;;;;;;;10.07;100.00;102109.09;5014620;28;20029;-77
2022/10/04 07:59:44;;;;;;;17.38;10.23;;;;;;;10.22;100.00;102104.25;5014430;28;20030;-79
2022/10/04 08:02:11;;;;;;;16.73;9.63;;;;;;;10.33;100.00;102105.50;5042328;28;20040;-80
2022/10/04 08:05:03;;;;;;;18.63;9.57;;;;;;;10.43;100.00;102093.06;5076073;28;20024;-79
2022/10/04 08:07:40;;;;;;;18.65;10.25;;;;;;;10.54;100.00;102106.34;5014288;28;20062;-80
2022/10/04 08:10:34;;;;;;;18.48;10.65;;;;;;;10.64;100.00;102104.22;5014329;28;20029;-80
2022/10/04 08:13:17;;;;;;;16.35;10.23;;;;;;;10.73;100.00;102106.41;5014086;28;20037;-79
2022/10/04 08:15:43;;;;;;;18.13;9.38;;;;;;;10.75;100.00;102102.00;5014261;28;20040;-79
2022/10/04 08:18:52;;;;;;;14.38;9.80;;;;;;;10.82;100.00;102093.09;5013830;28;20042;-78
2022/10/04 08:21:25;;;;;;;15.55;8.85;;;;;;;10.77;100.00;102071.75;5015993;28;20499;-74
2022/10/04 08:24:35;;;;;;;17.48;9.00;;;;;;;10.95;100.00;102084.78;5033947;28;20038;-76
2022/10/04 08:27:26;;;;;;;14.25;8.23;;;;;;;11.00;100.00;102082.81;4994457;28;20153;-78
2022/10/04 08:30:09;;;;;;;15.13;8.75;;;;;;;11.14;100.00;102091.66;4936140;29;20415;-79
2022/10/04 08:33:00;;;;;;;14.13;7.65;;;;;;;11.18;100.00;102098.34;4936305;29;20044;-79
2022/10/04 08:35:28;;;;;;;15.32;8.40;;;;;;;11.07;100.00;102063.56;4935968;29;20047;-78
2022/10/04 08:37:59;;;;;;;14.13;8.93;;;;;;;11.24;100.00;102092.06;4936124;29;20091;-78
2022/10/04 08:40:43;;;;;;;14.77;7.72;;;;;;;11.25;100.00;102098.91;4936132;29;20394;-78
2022/10/04 08:43:30;;;;;;;15.18;9.27;;;;;;;11.33;99.05;102102.00;4936093;29;20091;-78
2022/10/04 08:46:08;;;;;;;16.27;8.15;;;;;;;11.40;99.17;102099.94;4955120;29;20094;-77
2022/10/04 08:49:10;;;;;;;16.45;9.02;;;;;;;11.47;98.95;102103.94;4954903;29;20086;-82
2022/10/04 08:51:50;;;;;;;16.80;9.18;;;;;;;11.54;98.57;102101.91;4954363;28;20541;-78
2022/10/04 08:54:55;;;;;;;17.45;9.15;;;;;;;11.62;97.86;102094.63;4954919;29;20035;-80
2022/10/04 08:57:49;;;;;;;15.82;8.55;;;;;;;11.69;97.21;102098.59;4948130;28;20501;-79
2022/10/04 09:00:30;;;;;;;16.55;8.40;;;;;;;11.74;95.69;102091.47;4974344;28;20434;-79
2022/10/04 09:03:35;;;;;;;15.93;8.65;;;;;;;11.76;95.56;102084.44;4974156;28;20521;-83
2022/10/04 09:06:30;;;;;;;13.43;8.05;;;;;;;11.80;95.06;102086.03;4988178;28;20045;-83
2022/10/04 09:09:01;;;;;;;12.90;7.80;;;;;;;11.95;95.16;102110.31;5032709;28;20045;-80
2022/10/04 09:11:55;;;;;;;13.68;7.60;;;;;;;11.98;95.55;102105.81;5016213;28;20034;-81
2022/10/04 09:14:42;;;;;;;12.25;7.45;;;;;;;12.04;94.45;102115.06;5032898;28;20037;-80
2022/10/04 09:17:39;;;;;;;14.75;8.68;;;;;;;12.05;94.16;102094.28;5032832;28;20036;-81
2022/10/04 09:20:10;;;;;;;13.95;8.00;;;;;;;12.21;94.04;102102.13;5032492;28;20068;-79
2022/10/04 09:22:46;;;;;;;16.33;8.50;;;;;;;12.27;93.51;102100.97;5032763;28;20033;-81
2022/10/04 09:25:33;;;;;;;14.60;8.00;;;;;;;12.25;91.87;102088.09;5032524;28;20429;-85
2022/10/04 09:28:19;;;;;;;13.90;8.55;;;;;;;12.35;92.44;102089.31;5032445;28;20033;-83
2022/10/04 09:31:00;;;;;;;14.50;9.02;;;;;;;12.42;91.28;102086.44;5032358;28;20400;-87
2022/10/04 09:33:43;;;;;;;15.32;8.27;;;;;;;12.51;92.03;102089.41;5032252;28;20033;-85
2022/10/04 09:36:11;;;;;;;13.75;8.35;;;;;;;12.53;91.00;102086.72;5032248;28;20040;-85
2022/10/04 09:39:02;;;;;;;13.38;8.45;;;;;;;12.63;92.60;102086.16;5015470;28;20147;-85
2022/10/04 09:41:43;;;;;;;13.63;8.93;;;;;;;12.60;91.78;102059.59;5015719;28;20040;-87
2022/10/04 09:44:45;;;;;;;13.50;8.40;;;;;;;12.67;90.24;102058.31;5032280;28;20092;-84
2022/10/04 09:47:36;;;;;;;16.42;8.23;;;;;;;12.78;90.48;102066.41;5011949;28;20046;-84
2022/10/04 09:50:23;;;;;;;15.10;8.60;;;;;;;12.84;92.04;102076.44;4995602;28;20128;-86
2022/10/04 09:53:19;;;;;;;17.08;9.75;;;;;;;12.89;90.29;102082.22;5012233;28;20060;-85
2022/10/04 09:55:59;;;;;;;17.52;9.25;;;;;;;13.00;89.93;102080.81;5012125;28;20053;-84
2022/10/04 09:58:44;;;;;;;17.17;9.65;;;;;;;13.05;89.43;102090.03;5012252;28;20033;-85
2022/10/04 10:01:28;;;;;;;14.98;8.60;;;;;;;13.03;88.84;102083.25;5012242;28;20092;-84
2022/10/04 10:04:02;;;;;;;16.83;8.70;;;;;;;13.06;90.00;102077.88;5011258;28;20061;-85
2022/10/04 10:06:39;;;;;;;15.52;9.38;;;;;;;13.12;88.89;102074.97;5011738;28;20060;-85
2022/10/04 10:16:05;;;;;;;14.02;7.88;;;;;;;13.38;86.72;102064.06;4995464;28;20520;-82
2022/10/04 10:19:16;;;;;;;16.75;8.27;;;;;;;13.45;88.56;102069.72;4992672;28;20026;-81
2022/10/04 10:21:48;;;;;;;16.00;8.02;;;;;;;13.30;86.65;102011.75;4973808;28;20463;-82
2022/10/04 10:24:45;;;;;;;14.35;7.93;;;;;;;13.61;85.42;102055.00;4992207;28;20474;-83
2022/10/04 10:27:38;;;;;;;14.05;7.80;;;;;;;13.73;83.59;102051.69;4992040;28;20046;-81
2022/10/04 10:30:41;;;;;;;15.45;8.40;;;;;;;13.84;84.39;102056.28;4992186;28;20054;-84
2022/10/04 10:33:51;;;;;;;11.90;6.88;;;;;;;13.94;83.11;102052.22;4992002;28;20078;-79
2022/10/04 10:36:37;;;;;;;10.10;6.95;;;;;;;13.99;82.26;102057.19;4991727;28;20124;-80
2022/10/04 10:39:26;;;;;;;12.52;7.57;;;;;;;14.06;81.94;102051.53;4991916;28;20101;-84
2022/10/04 10:42:29;;;;;;;15.73;8.20;;;;;;;14.14;81.50;102060.63;4991683;28;20041;-83
2022/10/04 10:45:52;;;;;;;12.98;7.30;;;;;;;14.23;81.48;102060.09;4992074;28;20046;-82
2022/10/04 10:48:26;;;;;;;13.00;6.82;;;;;;;14.29;80.87;102067.53;4990811;28;20085;-82
2022/10/04 10:51:19;;;;;;;11.55;6.90;;;;;;;14.37;80.83;102073.13;4991417;28;20047;-84
2022/10/04 10:54:19;;;;;;;13.10;7.55;;;;;;;14.44;82.03;102069.22;4991741;28;20042;-85
2022/10/04 10:57:12;;;;;;;14.13;6.57;;;;;;;14.52;79.13;102072.22;4933506;29;20090;-83
2022/10/04 10:59:55;;;;;;;11.38;6.50;;;;;;;14.45;77.74;102057.91;4933886;29;20040;-82
2022/10/04 11:02:55;;;;;;;12.65;7.28;;;;;;;13.94;80.11;101982.09;4933775;29;20475;-83
2022/10/04 11:06:06;;;;;;;11.75;6.75;;;;;;;14.34;79.36;102057.69;4933662;28;20040;-84
2022/10/04 11:09:03;;;;;;;12.75;6.50;;;;;;;14.32;78.65;102050.00;4933669;29;20132;-82
2022/10/04 11:12:09;;;;;;;15.15;7.03;;;;;;;14.35;79.19;102047.22;4933521;28;20039;-83
2022/10/04 11:15:23;;;;;;;11.68;6.13;;;;;;;14.19;80.90;101997.09;4915092;29;20169;-82
2022/10/04 11:18:11;;;;;;;9.90;6.65;;;;;;;14.55;79.54;102032.22;4854737;29;20611;-84
2022/10/04 11:21:43;;;;;;;12.75;6.70;;;;;;;14.51;80.75;102015.16;4862616;29;20105;-82
2022/10/04 11:24:49;;;;;;;10.65;6.13;;;;;;;14.69;79.22;102032.22;4843784;29;20121;-82
2022/10/04 11:27:28;;;;;;;14.80;5.78;;;;;;;14.42;78.80;101971.47;4843778;29;20494;-88
2022/10/04 11:30:25;;;;;;;10.07;6.25;;;;;;;14.44;77.55;101957.47;4838638;29;20040;-87
2022/10/04 11:33:12;;;;;;;11.77;5.97;;;;;;;14.83;76.65;102010.56;4918577;29;20135;-86
2022/10/04 11:36:23;;;;;;;11.10;5.90;;;;;;;13.88;75.79;101857.84;4919510;29;20111;-82
2022/10/04 11:39:29;;;;;;;11.02;6.30;;;;;;;14.97;76.20;102013.16;4880451;29;20077;-83
2022/10/04 11:42:29;;;;;;;11.23;6.40;;;;;;;15.07;74.43;102001.25;4880811;29;20041;-84
2022/10/04 11:45:06;;;;;;;10.88;6.20;;;;;;;15.25;75.40;102006.22;4880390;29;20085;-86
2022/10/04 11:47:40;;;;;;;11.13;5.95;;;;;;;15.43;74.69;101997.19;4880367;29;20076;-86
2022/10/04 11:50:37;;;;;;;11.15;5.45;;;;;;;15.64;73.71;101993.25;4880430;29;20064;-87
2022/10/04 11:53:05;;;;;;;10.30;5.65;;;;;;;15.83;71.98;101984.19;4892853;28;20049;-85
2022/10/04 11:55:53;;;;;;;11.20;5.57;;;;;;;15.95;71.53;101991.22;4975218;28;20100;-88
2022/10/04 11:58:40;;;;;;;11.32;5.00;;;;;;;16.08;70.67;101988.63;4975305;28;20126;-88
2022/10/04 12:01:39;;;;;;;9.90;4.85;;;;;;;16.32;72.19;101985.19;4994195;28;20035;-83
2022/10/04 12:04:20;;;;;;;11.88;5.55;;;;;;;16.48;70.81;101986.72;4994691;28;20046;-86
2022/10/04 12:06:59;;;;;;;10.10;4.45;;;;;;;16.56;69.38;101989.63;4994194;28;20452;-85
2022/10/04 12:09:37;;;;;;;10.35;5.22;;;;;;;16.62;67.97;101990.03;5037424;28;20120;-83
2022/10/04 12:15:17;;;;;;;8.63;4.80;;;;;;;16.70;67.41;101994.72;5056194;28;20129;-83
2022/10/04 12:18:05;;;;;;;10.25;4.50;;;;;;;16.63;69.63;101978.66;5055806;28;20465;-87
2022/10/04 12:20:37;;;;;;;8.93;4.22;;;;;;;16.64;68.02;101993.38;5055937;28;20037;-85
2022/10/04 12:23:42;;;;;;;9.80;4.18;;;;;;;16.59;67.26;101984.19;5055592;28;20067;-84
2022/10/04 12:26:31;;;;;;;9.35;4.40;;;;;;;16.47;68.22;101977.22;5032360;28;20065;-85